createdAt,value
2018-08-06T00:00:03.597Z,61.30
2018-08-06T00:03:28.291Z,61.60
2018-08-06T00:06:52.969Z,61.30
2018-08-06T00:10:20.969Z,61.80
2018-08-06T00:13:45.974Z,61.40
2018-08-06T00:17:10.685Z,61.50
2018-08-06T00:20:35.490Z,61.70
2018-08-06T00:24:00.190Z,62.30
2018-08-06T00:27:25.621Z,62.50
2018-08-06T00:30:50.360Z,62.50
2018-08-06T00:34:15.244Z,62.50
2018-08-06T00:37:40.186Z,63.20
2018-08-06T00:41:05.320Z,62.80
2018-08-06T00:47:56.212Z,63.80
2018-08-06T00:51:21.086Z,64.70
2018-08-06T00:54:45.948Z,64.00
2018-08-06T00:58:10.770Z,64.30
2018-08-06T01:01:35.687Z,63.40
2018-08-06T01:05:00.576Z,63.80
2018-08-06T01:09:54.483Z,63.20
2018-08-06T01:13:19.437Z,63.90
2018-08-06T01:18:08.611Z,64.40
2018-08-06T01:21:33.391Z,63.90
2018-08-06T01:24:58.065Z,64.00
2018-08-06T01:28:22.749Z,64.90
2018-08-06T01:31:47.495Z,63.90
2018-08-06T01:35:13.261Z,64.50
2018-08-06T01:38:38.099Z,64.70
2018-08-06T01:45:27.348Z,65.00
2018-08-06T01:48:52.254Z,66.40
2018-08-06T01:52:17.221Z,66.40
2018-08-06T01:55:41.983Z,66.30
2018-08-06T01:59:06.669Z,66.80
2018-08-06T02:02:31.412Z,65.70
2018-08-06T02:05:56.151Z,66.10
2018-08-06T02:09:20.853Z,66.70
2018-08-06T02:12:46.095Z,67.50
2018-08-06T02:16:10.849Z,68.10
2018-08-06T02:19:35.549Z,67.30
2018-08-06T02:23:00.232Z,68.30
2018-08-06T02:26:24.855Z,68.00
2018-08-06T02:29:49.595Z,68.50
2018-08-06T02:33:14.466Z,68.40
2018-08-06T02:36:39.261Z,68.60
2018-08-06T02:40:04.143Z,67.90
2018-08-06T02:43:28.807Z,67.20
2018-08-06T02:46:53.636Z,67.60
2018-08-06T02:50:18.275Z,67.10
2018-08-06T02:53:42.916Z,67.60
2018-08-06T02:57:07.781Z,68.00
2018-08-06T03:00:32.552Z,67.70
2018-08-06T03:10:46.217Z,69.80
2018-08-06T03:14:12.267Z,70.00
2018-08-06T03:17:37.241Z,70.00
2018-08-06T03:21:01.945Z,69.30
2018-08-06T03:24:26.752Z,68.10
2018-08-06T03:27:51.629Z,68.40
2018-08-06T03:31:16.694Z,68.20
2018-08-06T03:34:41.493Z,67.00
2018-08-06T03:38:07.426Z,67.60
2018-08-06T03:41:32.360Z,67.90
2018-08-06T03:44:57.085Z,67.70
2018-08-06T03:48:21.871Z,67.10
2018-08-06T03:51:46.672Z,66.80
2018-08-06T03:55:12.199Z,67.20
2018-08-06T03:58:36.904Z,67.80
2018-08-06T04:02:01.689Z,69.00
2018-08-06T04:05:26.409Z,69.70
2018-08-06T04:08:51.270Z,70.30
2018-08-06T04:12:16.062Z,70.50
2018-08-06T04:15:40.759Z,69.30
2018-08-06T04:19:05.668Z,69.90
2018-08-06T04:22:30.446Z,68.30
2018-08-06T04:25:55.399Z,67.30
2018-08-06T04:29:20.170Z,67.20
2018-08-06T04:32:46.181Z,67.30
2018-08-06T04:36:10.902Z,67.20
2018-08-06T04:39:35.651Z,67.10
2018-08-06T04:43:00.402Z,67.40
2018-08-06T04:49:50.559Z,67.10
2018-08-06T04:53:15.360Z,66.90
2018-08-06T04:56:40.080Z,66.30
2018-08-06T05:00:07.546Z,67.20
2018-08-06T05:03:32.454Z,66.70
2018-08-06T05:07:00.603Z,67.50
2018-08-06T05:10:25.222Z,67.60
2018-08-06T05:13:49.978Z,67.90
2018-08-06T05:17:20.316Z,67.00
2018-08-06T05:20:45.185Z,66.70
2018-08-06T05:24:09.942Z,67.10
2018-08-06T05:27:34.707Z,68.00
2018-08-06T05:30:59.360Z,68.60
2018-08-06T05:34:24.110Z,68.60
2018-08-06T05:37:48.829Z,68.50
2018-08-06T05:41:13.571Z,68.10
2018-08-06T05:44:38.286Z,68.60
2018-08-06T05:48:03.120Z,69.40
2018-08-06T05:54:52.479Z,67.20
2018-08-06T05:58:17.518Z,68.30
2018-08-06T06:01:42.345Z,68.90
2018-08-06T06:05:07.198Z,68.70
2018-08-06T06:08:32.070Z,68.60
2018-08-06T06:15:21.254Z,67.70
2018-08-06T06:22:10.441Z,68.30
2018-08-06T06:25:35.215Z,67.00
2018-08-06T06:29:00.009Z,67.40
2018-08-06T06:32:24.780Z,67.90
2018-08-06T06:39:13.905Z,67.00
2018-08-06T06:42:38.647Z,66.90
2018-08-06T06:46:03.448Z,66.80
2018-08-06T06:49:28.120Z,68.30
2018-08-06T06:52:52.982Z,67.50
2018-08-06T06:56:17.874Z,66.70
2018-08-06T06:59:43.645Z,66.60
2018-08-06T07:03:08.415Z,66.10
2018-08-06T07:06:33.226Z,66.20
2018-08-06T07:09:57.921Z,65.40
2018-08-06T07:13:22.628Z,65.70
2018-08-06T07:23:36.390Z,66.70
2018-08-06T07:27:01.178Z,65.50
2018-08-06T07:37:15.982Z,65.60
2018-08-06T07:40:40.787Z,65.80
2018-08-06T07:44:05.742Z,65.30
2018-08-06T07:47:30.630Z,65.20
2018-08-06T07:50:55.397Z,65.50
2018-08-06T07:57:44.671Z,64.00
2018-08-06T08:01:09.433Z,64.60
2018-08-06T08:04:34.139Z,64.50
2018-08-06T08:07:58.954Z,64.50
2018-08-06T08:11:23.641Z,65.50
2018-08-06T08:14:48.313Z,63.70
2018-08-06T08:18:13.111Z,64.00
2018-08-06T08:21:37.828Z,63.90
2018-08-06T08:25:02.526Z,63.30
2018-08-06T08:28:27.248Z,62.70
2018-08-06T08:31:52.186Z,62.30
2018-08-06T08:35:17.756Z,62.50
2018-08-06T08:42:07.158Z,62.50
2018-08-06T08:45:31.918Z,61.80
2018-08-06T08:48:56.714Z,61.80
2018-08-06T08:55:47.348Z,62.20
2018-08-06T08:59:12.352Z,62.60
2018-08-06T09:02:37.574Z,62.30
2018-08-06T09:06:03.924Z,62.00
2018-08-06T09:12:53.610Z,61.70
2018-08-06T09:16:18.290Z,61.80
2018-08-06T09:19:42.964Z,61.70
2018-08-06T09:23:07.864Z,61.50
2018-08-06T09:26:32.546Z,60.90
2018-08-06T09:29:57.264Z,60.90
2018-08-06T09:33:22.062Z,60.80
2018-08-06T09:36:46.935Z,60.90
2018-08-06T09:40:14.741Z,60.00
2018-08-06T09:43:39.440Z,60.30
2018-08-06T09:47:05.219Z,60.40
2018-08-06T09:50:30.580Z,60.00
2018-08-06T09:53:55.494Z,59.60
2018-08-06T09:57:20.335Z,59.40
2018-08-06T10:00:51.604Z,59.10
2018-08-06T10:04:16.337Z,58.70
2018-08-06T10:07:41.124Z,59.00
2018-08-06T10:11:06.944Z,59.10
2018-08-06T10:14:32.380Z,58.80
2018-08-06T10:21:22.734Z,58.80
2018-08-06T10:24:47.467Z,58.50
2018-08-06T10:28:12.278Z,57.90
2018-08-06T10:31:37.011Z,58.30
2018-08-06T10:35:01.793Z,57.80
2018-08-06T10:38:26.516Z,57.20
2018-08-06T10:41:51.222Z,58.00
2018-08-06T10:45:19.021Z,57.30
2018-08-06T10:48:44.176Z,58.00
2018-08-06T10:52:08.851Z,57.60
2018-08-06T10:55:33.604Z,57.40
2018-08-06T10:58:58.410Z,57.90
2018-08-06T11:05:47.424Z,58.70
2018-08-06T11:09:12.167Z,58.60
2018-08-06T11:12:37.524Z,59.20
2018-08-06T11:16:04.406Z,59.00
2018-08-06T11:19:29.283Z,58.60
2018-08-06T11:22:54.172Z,58.20
2018-08-06T11:26:18.912Z,58.20
2018-08-06T11:29:43.700Z,55.60
2018-08-06T11:33:08.500Z,55.50
2018-08-06T11:36:33.219Z,55.40
2018-08-06T11:39:58.059Z,54.10
2018-08-06T11:43:22.802Z,53.90
2018-08-06T11:46:47.548Z,55.00
2018-08-06T11:50:12.333Z,55.40
2018-08-06T11:53:37.020Z,54.10
2018-08-06T11:57:01.722Z,53.50
2018-08-06T12:00:27.756Z,52.70
2018-08-06T12:03:52.661Z,53.30
2018-08-06T12:07:17.386Z,53.10
2018-08-06T12:10:42.159Z,54.00
2018-08-06T12:14:06.966Z,55.70
2018-08-06T12:17:31.668Z,55.40
2018-08-06T12:20:56.411Z,54.50
2018-08-06T12:24:21.170Z,53.20
2018-08-06T12:27:46.746Z,52.60
2018-08-06T12:31:11.620Z,51.90
2018-08-06T12:34:36.296Z,51.40
2018-08-06T12:38:01.168Z,48.80
2018-08-06T12:41:26.058Z,49.20
2018-08-06T12:44:50.912Z,50.50
2018-08-06T12:48:15.904Z,49.70
2018-08-06T12:51:40.737Z,49.70
2018-08-06T12:55:06.952Z,48.70
2018-08-06T12:58:31.869Z,47.70
2018-08-06T13:01:56.740Z,48.80
2018-08-06T13:05:22.173Z,50.80
2018-08-06T13:08:46.958Z,50.80
2018-08-06T13:15:36.939Z,48.40
2018-08-06T13:19:01.758Z,47.10
2018-08-06T13:22:26.497Z,48.10
2018-08-06T13:25:51.286Z,48.40
2018-08-06T13:32:40.470Z,45.20
2018-08-06T13:36:05.225Z,45.70
2018-08-06T13:39:29.965Z,47.00
2018-08-06T13:42:54.739Z,46.30
2018-08-06T13:46:19.550Z,47.70
2018-08-06T13:49:44.276Z,49.40
2018-08-06T13:53:09.001Z,49.40
2018-08-06T13:56:33.576Z,49.40
2018-08-06T13:59:58.316Z,46.70
2018-08-06T14:03:23.026Z,46.20
2018-08-06T14:06:48.051Z,45.70
2018-08-06T14:10:12.878Z,46.90
2018-08-06T14:17:01.848Z,43.60
2018-08-06T14:20:26.648Z,45.20
2018-08-06T14:23:51.350Z,43.60
2018-08-06T14:27:16.178Z,43.70
2018-08-06T14:30:40.902Z,42.80
2018-08-06T14:34:05.942Z,41.80
2018-08-06T14:37:30.631Z,44.10
2018-08-06T14:40:55.371Z,42.70
2018-08-06T14:44:20.232Z,44.50
2018-08-06T14:47:45.063Z,44.10
2018-08-06T14:51:10.215Z,41.80
2018-08-06T14:54:35.051Z,41.00
2018-08-06T14:57:59.721Z,40.30
2018-08-06T15:01:24.435Z,40.40
2018-08-06T15:04:49.068Z,41.90
2018-08-06T15:08:13.790Z,40.70
2018-08-06T15:11:38.577Z,40.20
2018-08-06T15:18:27.722Z,41.10
2018-08-06T15:25:19.249Z,41.10
2018-08-06T15:32:09.488Z,39.90
2018-08-06T15:35:34.155Z,40.20
2018-08-06T15:38:58.989Z,42.90
2018-08-06T15:42:23.723Z,43.70
2018-08-06T15:45:48.446Z,44.80
2018-08-06T15:49:13.270Z,44.90
2018-08-06T15:52:38.016Z,44.80
2018-08-06T15:56:02.862Z,45.00
2018-08-06T15:59:27.556Z,45.90
2018-08-06T16:02:52.413Z,46.40
2018-08-06T16:06:17.123Z,46.70
2018-08-06T16:09:41.810Z,49.10
2018-08-06T16:13:06.604Z,50.10
2018-08-06T16:16:31.320Z,50.80
2018-08-06T16:23:20.577Z,51.80
2018-08-06T16:26:45.312Z,52.30
2018-08-06T16:30:20.522Z,52.70
2018-08-06T16:33:45.196Z,52.80
2018-08-06T16:37:09.964Z,51.60
2018-08-06T16:40:34.671Z,52.50
2018-08-06T16:43:59.418Z,51.60
2018-08-06T16:47:24.172Z,52.00
2018-08-06T16:50:48.922Z,53.00
2018-08-06T16:54:13.660Z,51.70
2018-08-06T16:57:38.400Z,50.90
2018-08-06T17:01:03.319Z,50.80
2018-08-06T17:04:28.804Z,52.70
2018-08-06T17:07:53.543Z,48.90
2018-08-06T17:11:18.369Z,49.80
2018-08-06T17:14:43.052Z,50.60
2018-08-06T17:18:07.784Z,47.50
2018-08-06T17:21:33.597Z,48.80
2018-08-06T17:24:59.581Z,50.40
2018-08-06T17:28:24.441Z,49.00
2018-08-06T17:31:50.750Z,50.80
2018-08-06T17:35:16.912Z,51.30
2018-08-06T17:38:41.793Z,50.10
2018-08-06T17:42:06.643Z,51.40
2018-08-06T17:45:31.516Z,50.20
2018-08-06T17:48:56.229Z,51.90
2018-08-06T17:52:21.379Z,52.20
2018-08-06T17:55:46.182Z,51.90
2018-08-06T17:59:10.940Z,53.30
2018-08-06T18:02:35.981Z,52.30
2018-08-06T18:06:00.767Z,52.50
2018-08-06T18:09:25.617Z,51.70
2018-08-06T18:16:14.682Z,52.50
2018-08-06T18:23:04.106Z,53.40
2018-08-06T18:26:29.630Z,52.60
2018-08-06T18:33:19.466Z,53.80
2018-08-06T18:36:44.348Z,53.70
2018-08-06T18:40:10.119Z,54.90
2018-08-06T18:43:34.795Z,55.00
2018-08-06T18:46:59.522Z,55.00
2018-08-06T18:50:24.428Z,55.00
2018-08-06T18:57:13.742Z,55.80
2018-08-06T19:00:38.441Z,55.10
2018-08-06T19:04:03.228Z,55.50
2018-08-06T19:07:28.056Z,55.00
2018-08-06T19:10:52.807Z,56.40
2018-08-06T19:14:19.063Z,56.00
2018-08-06T19:17:49.171Z,56.40
2018-08-06T19:21:13.844Z,55.90
2018-08-06T19:24:43.868Z,56.40
2018-08-06T19:28:08.669Z,57.20
2018-08-06T19:31:33.396Z,58.20
2018-08-06T19:34:58.176Z,57.50
2018-08-06T19:41:47.394Z,57.80
2018-08-06T19:45:12.779Z,58.10
2018-08-06T19:48:37.580Z,58.30
2018-08-06T19:52:02.340Z,58.70
2018-08-06T19:58:56.738Z,59.70
2018-08-06T20:02:21.515Z,59.60
2018-08-06T20:05:46.162Z,59.40
2018-08-06T20:09:13.903Z,59.80
2018-08-06T20:12:38.602Z,60.00
2018-08-06T20:19:27.877Z,59.90
2018-08-06T20:22:52.619Z,60.50
2018-08-06T20:29:41.808Z,60.40
2018-08-06T20:33:07.533Z,60.70
2018-08-06T20:36:32.261Z,60.60
2018-08-06T20:43:21.461Z,60.00
2018-08-06T20:46:46.108Z,60.50
2018-08-06T20:50:13.805Z,61.00
2018-08-06T20:53:38.556Z,62.20
2018-08-06T20:57:03.268Z,60.50
2018-08-06T21:00:28.099Z,60.00
2018-08-06T21:03:52.819Z,60.30
2018-08-06T21:10:42.261Z,59.20
2018-08-06T21:14:07.064Z,60.70
2018-08-06T21:24:20.407Z,58.00
2018-08-06T21:27:46.287Z,58.50
2018-08-06T21:31:10.973Z,61.30
2018-08-06T21:34:35.652Z,60.10
2018-08-06T21:38:00.403Z,60.80
2018-08-06T21:41:25.105Z,58.20
2018-08-06T21:44:49.730Z,58.90
2018-08-06T21:48:14.432Z,58.50
2018-08-06T21:51:39.113Z,59.70
2018-08-06T21:55:03.792Z,59.90
2018-08-06T21:58:28.540Z,59.40
2018-08-06T22:01:53.318Z,59.10
2018-08-06T22:05:17.978Z,61.40
2018-08-06T22:08:42.685Z,62.30
2018-08-06T22:12:07.315Z,62.50
2018-08-06T22:18:56.563Z,61.30
2018-08-06T22:29:09.824Z,62.90
2018-08-06T22:32:34.755Z,64.00
2018-08-06T22:35:59.400Z,64.40
2018-08-06T22:39:24.160Z,63.10
2018-08-06T22:46:13.197Z,62.90
2018-08-06T22:49:37.817Z,64.20
2018-08-06T22:53:02.490Z,64.40
2018-08-06T22:59:51.432Z,65.10
2018-08-06T23:03:16.238Z,66.10
2018-08-06T23:06:40.895Z,65.50
2018-08-06T23:10:09.068Z,64.00
2018-08-06T23:13:33.733Z,64.20
2018-08-06T23:16:58.376Z,63.80
2018-08-06T23:23:47.352Z,63.20
2018-08-06T23:27:12.105Z,63.60
2018-08-06T23:30:37.820Z,62.90
2018-08-06T23:34:02.495Z,61.60
2018-08-06T23:37:27.137Z,60.40
2018-08-06T23:40:51.769Z,61.30
2018-08-06T23:44:16.498Z,63.50
2018-08-06T23:47:41.501Z,59.90
2018-08-06T23:51:06.558Z,60.90
2018-08-06T23:54:31.236Z,60.00
2018-08-06T23:57:55.912Z,60.40
